Time;durP1;ratioP1;P1;durP2;ratioP2;P2;SDS_P1;SDS_P2;PMS_P1;PMS_P2;Temp;Humidity;BMP_temperature;BMP_pressure;BME280_temperature;BME280_humidity;BME280_pressure;Samples;Min_cycle;Max_cycle;Signal;HPM_P1;HPM_P2
2023/10/25 00:01:13;;;;;;;;;;;;;;;14.51;81.06;99599.31;5117404;27;19915;-81
2023/10/25 00:03:39;;;;;;;;;;;;;;;14.41;80.21;99594.69;5112558;28;19968;-85
2023/10/25 00:06:05;;;;;;;;;;;;;;;14.29;81.45;99590.56;5113094;28;19952;-84
2023/10/25 00:08:30;;;;;;;;;;;;;;;14.51;81.22;99587.78;5114485;27;19942;-82
2023/10/25 00:11:03;;;;;;;;;;;;;;;14.39;82.50;99580.72;5115839;27;20257;-82
2023/10/25 00:13:28;;;;;;;;;;;;;;;14.35;83.64;99571.56;5094782;28;19916;-81
2023/10/25 00:15:54;;;;;;;;;;;;;;;14.23;84.62;99560.19;5112561;28;20292;-83
2023/10/25 00:18:19;;;;;;;;;;;;;;;14.18;85.06;99552.91;5129804;27;19915;-83
2023/10/25 00:20:44;;;;;;;;;;;;;;;14.12;85.68;99564.66;5114249;27;19916;-82
2023/10/25 00:23:09;;;;;;;;;;;;;;;14.44;84.02;99567.34;5118229;27;19919;-82
2023/10/25 00:25:35;;;;;;;;;;;;;;;14.44;83.50;99570.03;5132504;27;19929;-82
2023/10/25 00:28:00;;;;;;;;;;;;;;;14.56;82.62;99569.06;5128340;27;19916;-82
2023/10/25 00:30:25;;;;;;;;;;;;;;;14.56;82.84;99563.69;5118952;27;19924;-82
2023/10/25 00:32:50;;;;;;;;;;;;;;;14.75;81.26;99562.25;5107231;28;19916;-82
2023/10/25 00:35:16;;;;;;;;;;;;;;;14.03;85.33;99550.88;5131305;27;19915;-81
2023/10/25 00:37:41;;;;;;;;;;;;;;;14.31;84.19;99540.16;5124690;27;19923;-82
2023/10/25 00:40:07;;;;;;;;;;;;;;;14.56;82.49;99536.88;5120464;27;19915;-82
2023/10/25 00:42:32;;;;;;;;;;;;;;;13.91;86.22;99542.19;5127476;27;19942;-82
2023/10/25 00:44:58;;;;;;;;;;;;;;;14.51;83.07;99542.19;5114999;27;19920;-81
2023/10/25 00:47:24;;;;;;;;;;;;;;;14.17;85.25;99545.13;5112710;28;20289;-82
2023/10/25 00:49:50;;;;;;;;;;;;;;;14.47;83.39;99549.94;5111979;28;19946;-82
2023/10/25 00:52:15;;;;;;;;;;;;;;;13.96;85.61;99544.13;5111501;28;19977;-83
2023/10/25 00:54:41;;;;;;;;;;;;;;;13.77;86.70;99551.69;5113092;28;19974;-82
2023/10/25 00:57:07;;;;;;;;;;;;;;;13.97;85.97;99551.09;5110535;28;20384;-82
2023/10/25 00:59:32;;;;;;;;;;;;;;;14.53;82.92;99556.94;5111930;28;19918;-82
2023/10/25 01:01:58;;;;;;;;;;;;;;;14.07;85.28;99546.63;5142030;27;19968;-84
2023/10/25 01:04:24;;;;;;;;;;;;;;;13.72;87.93;99525.66;5119978;27;19923;-83
2023/10/25 01:06:51;;;;;;;;;;;;;;;13.92;88.04;99533.09;5132688;27;19915;-81
2023/10/25 01:09:16;;;;;;;;;;;;;;;14.12;86.00;99542.38;5113529;27;19916;-82
2023/10/25 01:11:42;;;;;;;;;;;;;;;14.49;83.50;99552.38;5130861;27;19930;-82
2023/10/25 01:14:07;;;;;;;;;;;;;;;13.68;87.35;99537.16;5112740;27;20014;-82
2023/10/25 01:16:32;;;;;;;;;;;;;;;13.39;88.43;99540.06;5110832;28;19916;-82
2023/10/25 01:18:58;;;;;;;;;;;;;;;13.83;86.62;99551.53;5125476;27;20159;-82
2023/10/25 01:21:23;;;;;;;;;;;;;;;14.10;84.05;99564.09;5116753;27;20331;-82
2023/10/25 01:23:52;;;;;;;;;;;;;;;14.33;83.12;99571.00;5125671;27;19975;-82
2023/10/25 01:26:18;;;;;;;;;;;;;;;14.35;83.08;99562.72;5111038;28;20017;-83
2023/10/25 01:28:43;;;;;;;;;;;;;;;14.16;84.83;99559.56;5122966;27;19964;-82
2023/10/25 01:31:08;;;;;;;;;;;;;;;13.32;89.54;99555.50;5121140;27;19941;-82
2023/10/25 01:33:33;;;;;;;;;;;;;;;13.74;88.11;99549.53;5127035;27;19912;-82
2023/10/25 01:35:59;;;;;;;;;;;;;;;13.60;87.85;99549.91;5113520;27;19920;-82
2023/10/25 01:38:24;;;;;;;;;;;;;;;13.79;87.59;99557.63;5115980;28;19918;-81
2023/10/25 01:40:51;;;;;;;;;;;;;;;13.98;85.93;99560.78;5132887;27;19968;-81
2023/10/25 01:43:17;;;;;;;;;;;;;;;13.96;86.43;99566.38;5119479;28;19923;-83
2023/10/25 01:45:45;;;;;;;;;;;;;;;14.14;85.43;99577.78;5129018;28;19915;-83
2023/10/25 01:48:13;;;;;;;;;;;;;;;14.08;85.39;99563.56;5120357;28;19919;-82
2023/10/25 01:50:38;;;;;;;;;;;;;;;13.38;89.39;99543.78;5118778;28;20400;-82
2023/10/25 01:53:03;;;;;;;;;;;;;;;12.83;90.73;99532.06;5120081;28;19970;-82
2023/10/25 01:55:29;;;;;;;;;;;;;;;12.42;91.63;99537.66;5130522;28;19919;-82
2023/10/25 01:57:54;;;;;;;;;;;;;;;12.72;91.04;99536.47;5139250;28;19911;-83
2023/10/25 02:00:19;;;;;;;;;;;;;;;13.14;88.64;99538.66;5119522;28;19912;-83
2023/10/25 02:02:44;;;;;;;;;;;;;;;12.88;90.37;99531.34;5138056;28;19965;-83
2023/10/25 02:05:10;;;;;;;;;;;;;;;12.72;92.38;99520.41;5131703;28;19977;-86
2023/10/25 02:07:35;;;;;;;;;;;;;;;12.53;93.58;99521.75;5132391;28;19915;-82
2023/10/25 02:10:00;;;;;;;;;;;;;;;12.47;93.18;99518.19;5139656;28;19916;-82
2023/10/25 02:12:26;;;;;;;;;;;;;;;13.00;90.34;99518.66;5126787;28;19919;-83
2023/10/25 02:14:51;;;;;;;;;;;;;;;12.55;91.59;99519.66;5118616;28;19915;-85
2023/10/25 02:17:18;;;;;;;;;;;;;;;12.83;91.06;99511.50;5103088;28;19912;-83
2023/10/25 02:19:45;;;;;;;;;;;;;;;12.79;90.52;99509.53;5145186;27;19919;-84
2023/10/25 02:22:10;;;;;;;;;;;;;;;12.44;93.01;99506.13;5130655;28;19916;-83
2023/10/25 02:24:36;;;;;;;;;;;;;;;12.04;95.06;99506.28;5135768;28;19923;-83
2023/10/25 02:27:01;;;;;;;;;;;;;;;12.64;91.83;99500.25;5122748;28;19926;-82
2023/10/25 02:29:26;;;;;;;;;;;;;;;13.14;88.62;99509.22;5123168;28;19916;-82
2023/10/25 02:31:52;;;;;;;;;;;;;;;12.90;90.61;99505.94;5114594;28;19975;-82
2023/10/25 02:34:17;;;;;;;;;;;;;;;12.88;91.23;99504.59;5118387;28;19926;-82
2023/10/25 02:36:42;;;;;;;;;;;;;;;12.92;91.42;99495.81;5114800;28;19911;-83
2023/10/25 02:39:08;;;;;;;;;;;;;;;13.19;91.25;99487.84;5116502;27;19911;-82
2023/10/25 02:41:34;;;;;;;;;;;;;;;13.34;90.62;99494.44;5135437;27;20006;-82
2023/10/25 02:43:59;;;;;;;;;;;;;;;13.45;89.64;99502.34;5129026;27;20359;-82
2023/10/25 02:46:25;;;;;;;;;;;;;;;13.85;86.67;99516.41;5129788;27;19919;-83
2023/10/25 02:48:51;;;;;;;;;;;;;;;13.80;86.76;99513.69;5118070;27;19923;-83
2023/10/25 02:51:17;;;;;;;;;;;;;;;13.89;85.78;99512.16;5130731;27;20502;-82
2023/10/25 02:53:44;;;;;;;;;;;;;;;13.84;85.26;99526.31;5115475;28;20387;-83
2023/10/25 02:56:10;;;;;;;;;;;;;;;13.82;85.13;99514.25;5124755;27;19922;-83
2023/10/25 02:58:35;;;;;;;;;;;;;;;13.77;85.54;99520.38;5121327;27;20292;-83
2023/10/25 03:01:01;;;;;;;;;;;;;;;13.94;84.70;99525.63;5115112;28;20361;-82
2023/10/25 03:03:26;;;;;;;;;;;;;;;13.82;84.53;99527.66;5134716;27;19957;-83
2023/10/25 03:05:52;;;;;;;;;;;;;;;13.56;85.86;99524.69;5114015;27;19916;-83
2023/10/25 03:08:17;;;;;;;;;;;;;;;13.37;87.45;99536.81;5113794;28;19911;-82
2023/10/25 03:10:43;;;;;;;;;;;;;;;13.34;87.49;99545.34;5119457;27;19922;-82
2023/10/25 03:13:08;;;;;;;;;;;;;;;13.22;88.87;99550.81;5114949;28;19916;-83
2023/10/25 03:15:35;;;;;;;;;;;;;;;13.13;89.46;99547.72;5127909;27;19915;-82
2023/10/25 03:18:01;;;;;;;;;;;;;;;13.20;89.21;99547.56;5120903;27;19926;-83
2023/10/25 03:20:29;;;;;;;;;;;;;;;13.03;89.04;99547.59;5129198;27;19916;-85
2023/10/25 03:22:55;;;;;;;;;;;;;;;13.08;88.19;99536.97;5122499;27;19919;-82
2023/10/25 03:25:20;;;;;;;;;;;;;;;12.78;89.11;99524.78;5117153;27;19927;-83
2023/10/25 03:27:46;;;;;;;;;;;;;;;13.03;86.83;99518.16;5128352;27;19923;-83
2023/10/25 03:30:11;;;;;;;;;;;;;;;13.34;85.67;99523.91;5117117;27;19916;-82
2023/10/25 03:32:37;;;;;;;;;;;;;;;13.27;86.40;99524.06;5125183;27;19994;-84
2023/10/25 03:35:02;;;;;;;;;;;;;;;13.39;85.52;99523.97;5122047;27;19922;-83
2023/10/25 03:37:27;;;;;;;;;;;;;;;13.54;83.90;99526.81;5119265;27;19919;-82
2023/10/25 03:39:53;;;;;;;;;;;;;;;13.42;84.43;99523.47;5115121;27;19919;-82
2023/10/25 03:42:18;;;;;;;;;;;;;;;13.34;84.41;99521.22;5116833;27;19922;-83
2023/10/25 03:44:43;;;;;;;;;;;;;;;13.29;85.49;99530.03;5125259;27;20341;-82
2023/10/25 03:47:08;;;;;;;;;;;;;;;13.23;85.58;99537.16;5124576;27;19918;-83
2023/10/25 03:49:34;;;;;;;;;;;;;;;13.31;85.32;99532.47;5118904;27;20515;-82
2023/10/25 03:51:59;;;;;;;;;;;;;;;13.24;85.14;99530.75;5117302;27;19943;-82
2023/10/25 03:54:24;;;;;;;;;;;;;;;13.11;85.57;99544.50;5133191;27;19919;-82
2023/10/25 03:56:50;;;;;;;;;;;;;;;13.31;84.80;99543.16;5126068;27;19912;-85
2023/10/25 03:59:15;;;;;;;;;;;;;;;13.14;85.38;99546.69;5125338;27;19939;-82
2023/10/25 04:01:40;;;;;;;;;;;;;;;12.70;88.26;99554.63;5116460;27;20011;-83
2023/10/25 04:04:06;;;;;;;;;;;;;;;12.42;90.08;99547.50;5123991;27;19919;-84
2023/10/25 04:06:32;;;;;;;;;;;;;;;12.41;90.06;99551.25;5123322;27;19923;-82
2023/10/25 04:08:57;;;;;;;;;;;;;;;12.51;89.82;99550.63;5127614;27;19916;-83
2023/10/25 04:11:22;;;;;;;;;;;;;;;12.82;87.33;99552.66;5110764;27;20411;-83
2023/10/25 04:13:48;;;;;;;;;;;;;;;12.90;86.25;99547.97;5113485;27;19916;-84
2023/10/25 04:16:13;;;;;;;;;;;;;;;12.00;91.65;99530.00;5105420;27;20337;-83
2023/10/25 04:18:38;;;;;;;;;;;;;;;12.37;90.81;99524.19;5121102;27;19936;-82
2023/10/25 04:21:08;;;;;;;;;;;;;;;11.83;93.80;99510.47;5127099;27;19915;-84
2023/10/25 04:23:33;;;;;;;;;;;;;;;11.70;94.84;99502.72;5121554;27;19915;-83
2023/10/25 04:26:06;;;;;;;;;;;;;;;11.55;97.46;99501.41;5110845;27;19923;-82
2023/10/25 04:28:31;;;;;;;;;;;;;;;12.00;95.68;99497.13;5107729;27;19919;-83
2023/10/25 04:30:56;;;;;;;;;;;;;;;12.43;93.32;99507.16;5113028;27;20344;-82
2023/10/25 04:33:21;;;;;;;;;;;;;;;12.68;91.70;99505.91;5125223;27;20574;-82
2023/10/25 04:35:47;;;;;;;;;;;;;;;12.82;90.86;99504.50;5110128;27;19919;-84
2023/10/25 04:38:12;;;;;;;;;;;;;;;12.59;91.87;99502.06;5111214;28;20362;-82
2023/10/25 04:40:37;;;;;;;;;;;;;;;12.70;91.71;99494.97;5110994;27;19912;-82
2023/10/25 04:43:02;;;;;;;;;;;;;;;12.68;91.64;99489.88;5125631;27;19923;-86
2023/10/25 04:45:29;;;;;;;;;;;;;;;12.56;93.33;99481.13;5114945;27;20435;-82
2023/10/25 04:47:54;;;;;;;;;;;;;;;12.44;94.49;99486.56;5120176;27;19919;-83
2023/10/25 04:50:20;;;;;;;;;;;;;;;12.66;93.04;99483.94;5117510;27;19918;-82
2023/10/25 04:52:45;;;;;;;;;;;;;;;12.41;94.54;99471.84;5125036;27;19944;-82
2023/10/25 04:55:11;;;;;;;;;;;;;;;12.55;94.30;99476.84;5128159;27;19957;-82
2023/10/25 04:57:36;;;;;;;;;;;;;;;12.88;92.74;99475.16;5124269;27;19927;-82
2023/10/25 05:00:01;;;;;;;;;;;;;;;13.17;90.28;99476.56;5121613;27;19919;-82
2023/10/25 05:02:27;;;;;;;;;;;;;;;13.45;88.62;99493.53;5115197;27;19911;-85
2023/10/25 05:04:52;;;;;;;;;;;;;;;13.26;88.92;99499.19;5109205;28;19926;-82
2023/10/25 05:07:17;;;;;;;;;;;;;;;13.08;90.69;99491.47;5115017;27;19912;-82
2023/10/25 05:09:43;;;;;;;;;;;;;;;13.14;89.91;99485.13;5109237;28;20010;-84
2023/10/25 05:12:08;;;;;;;;;;;;;;;12.85;91.74;99482.63;5115234;27;19964;-82
2023/10/25 05:14:34;;;;;;;;;;;;;;;12.82;92.67;99467.03;5111265;27;19916;-82
2023/10/25 05:17:00;;;;;;;;;;;;;;;13.20;90.74;99462.69;5110943;28;19912;-82
2023/10/25 05:19:26;;;;;;;;;;;;;;;13.27;89.04;99463.28;5109494;28;20369;-83
2023/10/25 05:21:54;;;;;;;;;;;;;;;13.34;89.09;99465.81;5113018;27;19965;-84
2023/10/25 05:24:19;;;;;;;;;;;;;;;13.28;88.55;99472.16;5124470;27;19921;-85
2023/10/25 05:26:44;;;;;;;;;;;;;;;13.16;89.28;99471.47;5109988;28;19915;-84
2023/10/25 05:29:10;;;;;;;;;;;;;;;13.04;89.14;99466.25;5111211;28;20028;-85
2023/10/25 05:31:38;;;;;;;;;;;;;;;12.85;89.98;99461.22;5110091;28;19918;-85
2023/10/25 05:34:04;;;;;;;;;;;;;;;13.12;88.12;99460.47;5092106;28;20380;-85
2023/10/25 05:36:29;;;;;;;;;;;;;;;13.06;88.61;99462.25;5114630;27;19915;-85
2023/10/25 05:38:55;;;;;;;;;;;;;;;13.20;87.55;99468.03;5130650;27;19922;-86
2023/10/25 05:41:23;;;;;;;;;;;;;;;13.05;88.82;99467.84;5114215;28;20006;-86
2023/10/25 05:43:55;;;;;;;;;;;;;;;13.06;88.19;99467.63;5143191;27;19915;-85
2023/10/25 05:46:20;;;;;;;;;;;;;;;13.16;87.00;99471.47;5126576;28;19974;-85
2023/10/25 05:48:46;;;;;;;;;;;;;;;13.07;87.92;99468.41;5130534;28;19954;-84
2023/10/25 05:51:11;;;;;;;;;;;;;;;13.36;86.26;99471.75;5116168;28;19912;-85
2023/10/25 05:53:37;;;;;;;;;;;;;;;13.21;87.04;99472.31;5114079;28;19922;-85
2023/10/25 05:56:02;;;;;;;;;;;;;;;13.20;87.39;99484.13;5114480;28;19923;-84
2023/10/25 05:58:28;;;;;;;;;;;;;;;13.15;88.52;99483.22;5110872;28;19916;-85
2023/10/25 06:00:55;;;;;;;;;;;;;;;13.24;88.17;99482.56;5119474;28;20409;-85
2023/10/25 06:03:22;;;;;;;;;;;;;;;13.38;87.76;99479.50;5119577;28;19927;-85
2023/10/25 06:05:50;;;;;;;;;;;;;;;13.38;88.70;99485.69;5109495;28;19916;-85
2023/10/25 06:08:15;;;;;;;;;;;;;;;13.33;88.93;99487.50;5109871;28;20060;-86
2023/10/25 06:10:41;;;;;;;;;;;;;;;13.34;89.64;99489.94;5113348;28;20010;-84
2023/10/25 06:13:07;;;;;;;;;;;;;;;13.41;89.30;99485.16;5134844;27;19916;-86
2023/10/25 06:15:32;;;;;;;;;;;;;;;13.42;89.67;99475.25;5142698;27;19922;-85
2023/10/25 06:18:00;;;;;;;;;;;;;;;13.40;90.06;99475.53;5114031;27;19916;-85
2023/10/25 06:20:25;;;;;;;;;;;;;;;13.31;91.16;99478.91;5131401;27;19923;-85
2023/10/25 06:22:50;;;;;;;;;;;;;;;13.38;89.59;99490.22;5129879;27;19911;-85
2023/10/25 06:25:15;;;;;;;;;;;;;;;13.57;89.76;99499.53;5125838;27;19915;-84
2023/10/25 06:27:41;;;;;;;;;;;;;;;13.57;88.83;99494.19;5113524;28;19919;-85
2023/10/25 06:30:06;;;;;;;;;;;;;;;13.33;88.92;99487.50;5131289;27;20021;-84
2023/10/25 06:32:33;;;;;;;;;;;;;;;13.24;88.13;99490.59;5113065;28;19922;-84
2023/10/25 06:34:58;;;;;;;;;;;;;;;13.43;88.22;99507.16;5130678;27;19918;-84
2023/10/25 06:37:24;;;;;;;;;;;;;;;13.04;89.21;99504.53;5117924;27;19915;-85
2023/10/25 06:39:49;;;;;;;;;;;;;;;13.13;90.66;99512.94;5122521;27;20022;-85
2023/10/25 06:42:14;;;;;;;;;;;;;;;13.53;89.18;99511.81;5113164;28;19915;-84
2023/10/25 06:44:41;;;;;;;;;;;;;;;13.51;89.71;99507.78;5130218;27;19957;-85
2023/10/25 06:47:09;;;;;;;;;;;;;;;13.47;90.24;99528.91;5130924;27;19919;-84
2023/10/25 06:49:34;;;;;;;;;;;;;;;13.51;89.77;99523.84;5121115;27;20299;-84
2023/10/25 06:52:00;;;;;;;;;;;;;;;13.70;87.96;99524.31;5133654;27;19968;-85
2023/10/25 06:54:25;;;;;;;;;;;;;;;14.04;86.57;99520.34;5129435;27;19915;-84
2023/10/25 06:56:51;;;;;;;;;;;;;;;14.05;85.96;99521.94;5115127;27;19915;-86
2023/10/25 06:59:16;;;;;;;;;;;;;;;13.79;88.19;99528.13;5127712;27;20410;-84
2023/10/25 07:01:44;;;;;;;;;;;;;;;13.79;88.19;99541.53;5121917;27;19919;-86
2023/10/25 07:04:12;;;;;;;;;;;;;;;14.28;85.99;99544.13;5123521;27;19916;-84
2023/10/25 07:06:38;;;;;;;;;;;;;;;14.32;85.44;99542.56;5129101;27;19927;-84
2023/10/25 07:09:04;;;;;;;;;;;;;;;13.71;88.91;99531.28;5132663;27;19916;-84
2023/10/25 07:11:29;;;;;;;;;;;;;;;13.55;90.25;99516.94;5122687;27;19927;-85
2023/10/25 07:13:54;;;;;;;;;;;;;;;13.61;90.52;99499.84;5117547;27;19964;-86
2023/10/25 07:16:20;;;;;;;;;;;;;;;13.71;89.81;99493.75;5114629;27;20411;-86
2023/10/25 07:18:47;;;;;;;;;;;;;;;13.92;87.79;99495.56;5124119;27;19922;-85
2023/10/25 07:21:12;;;;;;;;;;;;;;;13.73;89.26;99502.34;5130502;27;19928;-83
2023/10/25 07:23:38;;;;;;;;;;;;;;;13.95;87.81;99497.72;5127636;27;20515;-85
2023/10/25 07:26:03;;;;;;;;;;;;;;;14.03;87.68;99508.00;5125097;27;19915;-84
2023/10/25 07:28:28;;;;;;;;;;;;;;;13.88;87.71;99520.47;5117243;27;19916;-84
2023/10/25 07:30:54;;;;;;;;;;;;;;;14.23;87.40;99525.31;5125888;27;19915;-85
2023/10/25 07:33:21;;;;;;;;;;;;;;;14.81;83.37;99537.03;5108737;27;19943;-84
2023/10/25 07:35:46;;;;;;;;;;;;;;;14.93;82.27;99538.69;5113941;27;19912;-84
2023/10/25 07:38:11;;;;;;;;;;;;;;;14.40;84.36;99533.22;5128542;27;19965;-84
2023/10/25 07:40:38;;;;;;;;;;;;;;;14.73;84.26;99534.84;5122053;27;19915;-84
2023/10/25 07:43:03;;;;;;;;;;;;;;;14.98;82.34;99554.84;5120245;27;19915;-83
2023/10/25 07:45:29;;;;;;;;;;;;;;;14.52;84.29;99530.38;5108536;27;20762;-83
2023/10/25 07:47:55;;;;;;;;;;;;;;;14.19;87.01;99514.28;5118996;27;20079;-82
2023/10/25 07:50:20;;;;;;;;;;;;;;;14.16;88.28;99501.41;5125164;27;19920;-85
2023/10/25 07:52:45;;;;;;;;;;;;;;;14.65;85.86;99519.22;5110808;28;19919;-85
2023/10/25 07:55:11;;;;;;;;;;;;;;;14.80;84.82;99532.72;5114891;27;19923;-83
2023/10/25 07:57:36;;;;;;;;;;;;;;;14.48;85.68;99513.97;5122742;27;19976;-84
2023/10/25 08:00:03;;;;;;;;;;;;;;;14.47;86.39;99510.50;5111174;27;19947;-86
2023/10/25 08:02:28;;;;;;;;;;;;;;;14.99;84.03;99524.22;5119060;27;20308;-85
2023/10/25 08:04:53;;;;;;;;;;;;;;;14.73;84.37;99540.22;5109816;28;20376;-83
2023/10/25 08:07:18;;;;;;;;;;;;;;;14.78;84.97;99540.22;5110940;28;20010;-83
2023/10/25 08:09:46;;;;;;;;;;;;;;;15.14;83.66;99543.13;5113304;27;19922;-83
2023/10/25 08:12:11;;;;;;;;;;;;;;;15.35;82.23;99527.09;5108423;28;19919;-83
2023/10/25 08:14:37;;;;;;;;;;;;;;;15.50;81.06;99519.06;5121271;27;19924;-82
2023/10/25 08:17:02;;;;;;;;;;;;;;;15.24;83.29;99513.63;5103513;28;20358;-82
2023/10/25 08:19:28;;;;;;;;;;;;;;;15.02;83.30;99515.66;5114475;27;20388;-86
2023/10/25 08:21:53;;;;;;;;;;;;;;;15.13;82.90;99522.69;5111505;27;19974;-84
2023/10/25 08:24:18;;;;;;;;;;;;;;;15.60;81.35;99523.66;5112026;27;19916;-82
2023/10/25 08:26:45;;;;;;;;;;;;;;;15.66;80.97;99511.84;5112298;27;19923;-82
2023/10/25 08:29:10;;;;;;;;;;;;;;;15.52;82.29;99495.41;5130185;27;20368;-82
2023/10/25 08:31:37;;;;;;;;;;;;;;;15.54;81.28;99498.63;5125538;27;19916;-84
2023/10/25 08:34:02;;;;;;;;;;;;;;;15.63;83.31;99502.44;5115138;27;20345;-82
2023/10/25 08:36:30;;;;;;;;;;;;;;;15.33;83.95;99502.34;5130433;27;19955;-81
2023/10/25 08:38:56;;;;;;;;;;;;;;;15.62;83.21;99506.19;5114288;27;19951;-83
2023/10/25 08:41:23;;;;;;;;;;;;;;;16.13;81.16;99512.72;5121970;27;19959;-82
2023/10/25 08:43:48;;;;;;;;;;;;;;;15.93;81.25;99526.97;5110384;28;19915;-82
2023/10/25 08:46:14;;;;;;;;;;;;;;;16.01;81.18;99527.22;5128156;27;19915;-82
2023/10/25 08:48:40;;;;;;;;;;;;;;;16.17;81.46;99528.06;5116042;27;19915;-82
2023/10/25 08:51:06;;;;;;;;;;;;;;;16.14;81.21;99533.16;5111149;27;19923;-82
2023/10/25 08:53:34;;;;;;;;;;;;;;;16.57;79.74;99525.59;5109782;28;20418;-82
2023/10/25 08:55:59;;;;;;;;;;;;;;;16.49;79.87;99518.91;5110447;28;19912;-82
2023/10/25 08:58:27;;;;;;;;;;;;;;;16.66;80.16;99524.78;5110858;28;19923;-82
2023/10/25 09:00:53;;;;;;;;;;;;;;;17.03;78.33;99533.63;5129767;27;19925;-82
2023/10/25 09:03:31;;;;;;;;;;;;;;;17.04;79.84;99519.88;5110025;28;19912;-83
2023/10/25 09:05:57;;;;;;;;;;;;;;;17.27;77.11;99529.22;5118966;27;20006;-82
2023/10/25 09:08:24;;;;;;;;;;;;;;;17.26;78.47;99516.00;5130225;27;20041;-82
2023/10/25 09:11:08;;;;;;;;;;;;;;;17.16;78.80;99518.75;5127273;27;19922;-83
2023/10/25 09:13:35;;;;;;;;;;;;;;;17.73;76.59;99521.97;5118753;27;19930;-82
2023/10/25 09:16:02;;;;;;;;;;;;;;;17.58;76.91;99526.34;5126195;27;19923;-83
2023/10/25 09:18:28;;;;;;;;;;;;;;;17.38;78.39;99519.19;5128051;27;19926;-82
2023/10/25 09:20:53;;;;;;;;;;;;;;;17.73;76.87;99508.47;5131302;27;19915;-81
2023/10/25 09:23:19;;;;;;;;;;;;;;;18.04;75.73;99515.31;5095238;28;19915;-83
2023/10/25 09:25:44;;;;;;;;;;;;;;;18.10;73.70;99517.94;5109605;28;19916;-83
2023/10/25 09:28:27;;;;;;;;;;;;;;;18.20;73.92;99531.34;5111101;27;20311;-84
2023/10/25 09:30:52;;;;;;;;;;;;;;;18.50;73.99;99516.78;5113387;27;19922;-84
2023/10/25 09:33:17;;;;;;;;;;;;;;;18.37;73.80;99515.56;5125414;27;20010;-83
2023/10/25 09:35:43;;;;;;;;;;;;;;;18.33;74.05;99517.22;5113182;27;20285;-83
2023/10/25 09:38:12;;;;;;;;;;;;;;;18.30;74.89;99528.56;5117320;27;19922;-84
2023/10/25 09:40:40;;;;;;;;;;;;;;;18.47;74.81;99510.06;5118604;28;19919;-84
2023/10/25 09:43:09;;;;;;;;;;;;;;;18.71;74.42;99503.88;5110614;28;19922;-83
2023/10/25 09:45:34;;;;;;;;;;;;;;;18.89;73.79;99506.97;5091103;28;20403;-83
2023/10/25 09:48:03;;;;;;;;;;;;;;;18.96;73.66;99496.63;5113104;28;19958;-85
2023/10/25 09:50:32;;;;;;;;;;;;;;;19.14;72.71;99493.16;5109420;28;19920;-84
2023/10/25 09:53:03;;;;;;;;;;;;;;;19.21;71.67;99499.03;5109197;28;19940;-83
2023/10/25 09:55:33;;;;;;;;;;;;;;;19.41;71.17;99487.13;5145483;27;19964;-85
2023/10/25 09:58:01;;;;;;;;;;;;;;;19.19;73.40;99485.00;5111395;28;19980;-83
2023/10/25 10:00:27;;;;;;;;;;;;;;;19.10;72.86;99484.00;5114329;28;20011;-84
2023/10/25 10:03:00;;;;;;;;;;;;;;;19.44;71.08;99470.31;5109782;28;19923;-83
2023/10/25 10:05:45;;;;;;;;;;;;;;;19.72;69.71;99467.00;5109945;28;19912;-84
2023/10/25 10:08:20;;;;;;;;;;;;;;;19.43;71.20;99467.91;5142324;27;19919;-84
2023/10/25 10:10:58;;;;;;;;;;;;;;;19.66;70.62;99464.31;5117286;28;19922;-84
2023/10/25 10:13:26;;;;;;;;;;;;;;;20.25;68.40;99464.75;5116498;28;19972;-84
2023/10/25 10:15:54;;;;;;;;;;;;;;;20.01;69.47;99461.38;5112424;28;20303;-83
2023/10/25 10:18:19;;;;;;;;;;;;;;;19.93;69.56;99462.84;5126648;28;20384;-84
2023/10/25 10:20:57;;;;;;;;;;;;;;;20.31;68.94;99453.81;5113028;28;19915;-85
2023/10/25 10:23:32;;;;;;;;;;;;;;;20.33;68.05;99451.59;5123951;28;19935;-84
2023/10/25 10:25:57;;;;;;;;;;;;;;;20.71;65.71;99454.97;5112227;28;19970;-84
2023/10/25 10:28:39;;;;;;;;;;;;;;;20.98;65.18;99445.22;5126620;28;19939;-84
2023/10/25 10:31:05;;;;;;;;;;;;;;;21.06;65.74;99441.81;5124395;28;20442;-84
2023/10/25 10:33:33;;;;;;;;;;;;;;;21.25;64.35;99433.56;5122045;28;19919;-84
2023/10/25 10:36:00;;;;;;;;;;;;;;;21.17;64.35;99432.34;5112054;28;20003;-84
2023/10/25 10:38:25;;;;;;;;;;;;;;;21.15;64.99;99431.84;5129848;28;19943;-85
2023/10/25 10:40:53;;;;;;;;;;;;;;;21.16;64.84;99428.03;5112967;28;19955;-83
2023/10/25 10:43:20;;;;;;;;;;;;;;;21.31;65.23;99431.50;5120689;28;19915;-83
2023/10/25 10:45:50;;;;;;;;;;;;;;;21.71;62.82;99429.78;5116774;28;19948;-83
2023/10/25 10:48:21;;;;;;;;;;;;;;;21.72;64.04;99425.97;5126691;28;19915;-83
2023/10/25 10:50:47;;;;;;;;;;;;;;;22.06;60.86;99425.38;5108679;28;20475;-83
2023/10/25 10:53:15;;;;;;;;;;;;;;;22.06;60.76;99425.38;5122447;28;19951;-84
2023/10/25 10:55:40;;;;;;;;;;;;;;;21.85;61.30;99419.66;5111474;28;19961;-83
2023/10/25 10:58:07;;;;;;;;;;;;;;;21.32;64.80;99400.56;5130364;27;19915;-83
2023/10/25 11:00:32;;;;;;;;;;;;;;;21.82;61.89;99403.19;5117055;27;19923;-84
2023/10/25 11:03:00;;;;;;;;;;;;;;;22.12;60.72;99417.91;5119079;27;19919;-87
2023/10/25 11:05:25;;;;;;;;;;;;;;;22.40;59.78;99413.13;5124947;27;19912;-85
2023/10/25 11:07:51;;;;;;;;;;;;;;;22.24;58.75;99398.34;5111695;28;20304;-84
2023/10/25 11:10:16;;;;;;;;;;;;;;;22.10;59.71;99392.19;5111635;28;20022;-83
2023/10/25 11:12:43;;;;;;;;;;;;;;;22.68;56.84;99391.16;5115721;27;20017;-83
2023/10/25 11:15:09;;;;;;;;;;;;;;;22.90;57.25;99387.50;5116930;27;19926;-85
2023/10/25 11:17:34;;;;;;;;;;;;;;;23.30;56.98;99375.75;5123992;27;19920;-84
2023/10/25 11:20:00;;;;;;;;;;;;;;;23.36;55.23;99377.97;5131649;27;19916;-83
2023/10/25 11:22:25;;;;;;;;;;;;;;;23.43;53.72;99382.91;5116698;27;19916;-83
2023/10/25 11:24:51;;;;;;;;;;;;;;;23.59;53.61;99375.06;5144906;27;19915;-86
2023/10/25 11:27:16;;;;;;;;;;;;;;;23.98;52.23;99371.31;5116500;27;20341;-83
2023/10/25 11:29:42;;;;;;;;;;;;;;;24.01;53.38;99373.41;5111927;28;20466;-83
2023/10/25 11:32:11;;;;;;;;;;;;;;;24.18;50.85;99364.34;5112136;28;19912;-84
2023/10/25 11:34:39;;;;;;;;;;;;;;;23.99;52.36;99364.75;5113663;28;19915;-86
2023/10/25 11:37:04;;;;;;;;;;;;;;;24.04;51.91;99364.56;5128635;27;19915;-84
2023/10/25 11:39:34;;;;;;;;;;;;;;;24.12;51.75;99359.44;5127952;27;19915;-84
2023/10/25 11:42:00;;;;;;;;;;;;;;;24.51;50.02;99365.69;5117173;27;19945;-84
2023/10/25 11:44:27;;;;;;;;;;;;;;;24.57;48.89;99358.91;5113042;28;19916;-83
2023/10/25 11:46:55;;;;;;;;;;;;;;;24.51;49.11;99354.78;5109006;27;19916;-83
2023/10/25 11:49:20;;;;;;;;;;;;;;;24.79;49.42;99360.56;5133888;27;19911;-84
2023/10/25 11:51:46;;;;;;;;;;;;;;;25.15;47.36;99362.69;5114612;27;20307;-84
2023/10/25 11:54:11;;;;;;;;;;;;;;;25.39;46.14;99353.03;5124826;27;19919;-85
2023/10/25 11:56:36;;;;;;;;;;;;;;;25.59;46.56;99333.06;5113680;28;19988;-82
2023/10/25 11:59:01;;;;;;;;;;;;;;;25.53;45.75;99322.72;5146403;27;19915;-83
2023/10/25 12:01:27;;;;;;;;;;;;;;;25.55;45.39;99326.69;5114322;27;19923;-86
2023/10/25 12:03:52;;;;;;;;;;;;;;;26.23;43.99;99341.84;5117332;27;19915;-83
2023/10/25 12:06:17;;;;;;;;;;;;;;;26.43;43.69;99332.72;5121936;27;19954;-83
2023/10/25 12:08:43;;;;;;;;;;;;;;;26.50;42.51;99334.09;5115888;27;19926;-87
2023/10/25 12:11:12;;;;;;;;;;;;;;;26.65;42.66;99323.28;5124419;27;19919;-85
2023/10/25 12:13:38;;;;;;;;;;;;;;;26.82;41.36;99308.53;5126623;27;19919;-84
2023/10/25 12:16:03;;;;;;;;;;;;;;;26.41;43.13;99302.19;5116519;27;19926;-85
2023/10/25 12:18:33;;;;;;;;;;;;;;;26.59;43.80;99302.00;5121283;27;19919;-87
2023/10/25 12:20:58;;;;;;;;;;;;;;;26.74;41.34;99297.75;5110777;28;20367;-84
2023/10/25 12:23:23;;;;;;;;;;;;;;;26.38;41.88;99308.38;5112578;28;20383;-85
2023/10/25 12:25:49;;;;;;;;;;;;;;;26.37;42.91;99301.28;5128938;27;19919;-84
2023/10/25 12:28:14;;;;;;;;;;;;;;;26.78;41.51;99299.44;5128175;27;20293;-86
2023/10/25 12:30:39;;;;;;;;;;;;;;;27.00;40.12;99292.63;5124712;27;19968;-85
2023/10/25 12:33:04;;;;;;;;;;;;;;;26.81;40.86;99300.69;5114334;27;19923;-84
2023/10/25 12:35:32;;;;;;;;;;;;;;;26.36;40.60;99294.25;5106738;28;19912;-85
2023/10/25 12:37:57;;;;;;;;;;;;;;;26.12;41.73;99295.06;5124306;27;19915;-84
2023/10/25 12:40:23;;;;;;;;;;;;;;;26.00;41.42;99292.31;5128315;27;19922;-84
2023/10/25 12:42:48;;;;;;;;;;;;;;;26.11;41.12;99290.72;5112626;27;20049;-85